Time;durP1;ratioP1;P1;durP2;ratioP2;P2;SDS_P1;SDS_P2;PMS_P1;PMS_P2;Temp;Humidity;BMP_temperature;BMP_pressure;BME280_temperature;BME280_humidity;BME280_pressure;Samples;Min_cycle;Max_cycle;Signal;HPM_P1;HPM_P2
2022/01/22 00:00:13;;;;;;;19.33;11.75;;;;;;;-0.74;65.01;99936.69;5043543;28;20562;-72
2022/01/22 00:02:41;;;;;;;26.55;13.30;;;;;;;-0.73;64.80;99938.41;5044418;28;20048;-68
2022/01/22 00:05:10;;;;;;;20.38;11.38;;;;;;;-0.69;64.80;99940.00;5043953;28;20049;-71
2022/01/22 00:07:38;;;;;;;22.95;12.55;;;;;;;-0.62;64.64;99936.31;5044966;28;20051;-71
2022/01/22 00:10:11;;;;;;;27.27;11.57;;;;;;;-0.57;64.49;99943.13;5043066;28;20051;-71
2022/01/22 00:13:07;;;;;;;26.08;12.95;;;;;;;-0.54;64.78;99943.00;5043662;28;20110;-73
2022/01/22 00:15:35;;;;;;;30.05;14.93;;;;;;;-0.48;64.22;99945.44;5043510;28;20131;-72
2022/01/22 00:18:04;;;;;;;17.15;10.50;;;;;;;-0.58;64.67;99942.25;5044184;28;20079;-69
2022/01/22 00:20:30;;;;;;;19.05;10.10;;;;;;;-0.59;65.18;99944.00;5043773;28;20045;-72
2022/01/22 00:22:59;;;;;;;16.77;10.63;;;;;;;-0.59;65.06;99943.16;5043222;28;20499;-72
2022/01/22 00:25:26;;;;;;;16.30;9.95;;;;;;;-0.58;64.85;99939.66;5043720;28;20235;-72
2022/01/22 00:27:53;;;;;;;17.40;9.02;;;;;;;-0.59;64.90;99938.81;5041278;28;20041;-69
2022/01/22 00:30:22;;;;;;;17.70;9.55;;;;;;;-0.59;65.00;99933.63;5043279;28;20401;-71
2022/01/22 00:32:50;;;;;;;19.85;11.52;;;;;;;-0.59;65.03;99940.56;5043769;28;20041;-70
2022/01/22 00:35:19;;;;;;;25.83;13.40;;;;;;;-0.63;65.39;99938.94;5043472;28;20070;-71
2022/01/22 00:37:48;;;;;;;19.20;11.43;;;;;;;-0.63;65.30;99938.94;5043339;28;20045;-70
2022/01/22 00:40:18;;;;;;;18.45;9.05;;;;;;;-0.60;65.24;99938.88;5043777;28;20795;-73
2022/01/22 00:42:46;;;;;;;17.30;11.48;;;;;;;-0.66;65.21;99939.06;5044357;28;20069;-74
2022/01/22 00:45:15;;;;;;;17.75;12.13;;;;;;;-0.64;65.34;99937.28;5043822;28;20503;-73
2022/01/22 00:47:42;;;;;;;19.65;9.25;;;;;;;-0.63;64.98;99942.41;5044115;28;20049;-73
2022/01/22 00:50:12;;;;;;;18.33;12.80;;;;;;;-0.65;65.19;99945.94;5043246;28;20045;-68
2022/01/22 00:52:39;;;;;;;21.48;11.65;;;;;;;-0.57;64.79;99937.94;5043927;28;20080;-68
2022/01/22 00:55:07;;;;;;;22.73;16.70;;;;;;;-0.59;65.42;99940.56;5043668;28;20045;-69
2022/01/22 00:57:35;;;;;;;17.38;12.98;;;;;;;-0.44;64.95;99939.22;5042401;28;20048;-72
2022/01/22 01:00:06;;;;;;;24.70;16.05;;;;;;;-0.38;64.88;99933.81;5043162;28;20072;-72
2022/01/22 01:02:34;;;;;;;28.73;14.38;;;;;;;-0.39;65.10;99934.75;5042822;28;20045;-70
2022/01/22 01:05:01;;;;;;;30.02;18.63;;;;;;;-0.46;65.55;99933.25;5043183;28;20140;-72
2022/01/22 01:07:30;;;;;;;23.42;15.50;;;;;;;-0.50;65.61;99934.25;5042483;28;20135;-71
2022/01/22 01:09:57;;;;;;;21.50;14.23;;;;;;;-0.49;65.74;99930.75;5043646;28;20427;-72
2022/01/22 01:12:24;;;;;;;21.65;14.93;;;;;;;-0.53;65.66;99923.97;5043382;28;20055;-71
2022/01/22 01:15:08;;;;;;;19.25;13.48;;;;;;;-0.42;66.04;99921.88;5041784;28;20145;-68
2022/01/22 01:17:57;;;;;;;25.30;14.18;;;;;;;-0.49;65.73;99920.38;5043554;28;20052;-71
2022/01/22 01:34:11;;;;;;;19.38;13.15;;;;;;;-0.35;65.66;99905.19;5043235;28;20053;-71
2022/01/22 01:36:38;;;;;;;21.55;15.73;;;;;;;-0.36;65.55;99920.81;5043335;28;20085;-70
2022/01/22 01:39:08;;;;;;;29.25;23.17;;;;;;;-0.31;65.24;99913.72;5043441;28;20127;-69
2022/01/22 01:41:43;;;;;;;20.92;13.57;;;;;;;-0.34;65.24;99925.06;5042270;28;20079;-71
2022/01/22 01:44:10;;;;;;;20.95;13.70;;;;;;;-0.35;64.77;99906.94;5043070;28;20494;-70
2022/01/22 01:46:43;;;;;;;23.27;15.05;;;;;;;-0.33;64.88;99905.16;5043797;28;20060;-70
2022/01/22 01:49:10;;;;;;;17.98;13.07;;;;;;;-0.39;64.87;99908.78;5042306;28;20045;-69
2022/01/22 01:51:37;;;;;;;19.67;13.48;;;;;;;-0.31;64.62;99904.19;5043371;28;20052;-69
2022/01/22 01:54:14;;;;;;;20.80;11.65;;;;;;;-0.35;64.59;99897.41;5042139;28;20049;-68
2022/01/22 01:59:25;;;;;;;20.98;12.48;;;;;;;-0.37;64.52;99907.00;5040985;28;20044;-70
2022/01/22 02:01:54;;;;;;;19.17;12.15;;;;;;;-0.34;64.73;99917.28;5042636;28;20059;-70
2022/01/22 02:04:21;;;;;;;23.73;14.18;;;;;;;-0.30;64.04;99915.44;5042998;28;20568;-71
2022/01/22 02:06:48;;;;;;;16.85;10.48;;;;;;;-0.31;64.35;99906.78;5042815;28;20741;-70
2022/01/22 02:09:15;;;;;;;19.63;11.88;;;;;;;-0.28;64.08;99916.22;5042046;28;20072;-69
2022/01/22 02:11:44;;;;;;;23.10;11.68;;;;;;;-0.33;64.25;99910.34;5042906;28;20131;-68
2022/01/22 02:23:30;;;;;;;23.00;16.33;;;;;;;-0.43;63.98;99907.22;5042746;28;20569;-72
2022/01/22 02:25:14;;;;;;;25.73;12.60;;;;;;;-0.45;63.87;99916.75;5042707;28;20056;-68
2022/01/22 02:27:41;;;;;;;18.23;12.85;;;;;;;-0.50;64.29;99914.34;5041879;28;20115;-68
2022/01/22 02:30:09;;;;;;;20.95;12.27;;;;;;;-0.52;63.94;99915.25;5044148;28;20053;-70
2022/01/22 02:35:26;;;;;;;31.92;14.18;;;;;;;-0.54;63.90;99917.94;5048660;28;20045;-68
2022/01/22 02:37:59;;;;;;;19.85;10.20;;;;;;;-0.54;63.57;99917.06;5048717;28;20157;-69
2022/01/22 02:40:29;;;;;;;23.42;12.43;;;;;;;-0.58;63.81;99913.72;5046586;28;20110;-68
2022/01/22 02:42:56;;;;;;;21.70;12.80;;;;;;;-0.59;63.55;99923.25;5046903;28;20071;-66
2022/01/22 02:45:23;;;;;;;18.75;10.77;;;;;;;-0.60;63.57;99918.13;5044743;28;20071;-66
2022/01/22 02:47:51;;;;;;;20.38;12.02;;;;;;;-0.60;63.69;99928.50;5043451;28;20045;-66
2022/01/22 02:50:19;;;;;;;19.75;9.73;;;;;;;-0.58;63.33;99918.91;5042230;28;20580;-66
2022/01/22 02:52:47;;;;;;;14.98;10.30;;;;;;;-0.63;63.61;99924.25;5041574;28;20117;-66
2022/01/22 02:55:16;;;;;;;24.38;9.82;;;;;;;-0.57;63.53;99927.56;5042617;28;20049;-67
2022/01/22 02:57:45;;;;;;;21.77;10.35;;;;;;;-0.64;63.29;99927.75;5039617;28;20100;-68
2022/01/22 03:00:16;;;;;;;19.30;11.80;;;;;;;-0.65;63.23;99931.25;5043013;28;20183;-67
2022/01/22 03:02:43;;;;;;;17.48;10.55;;;;;;;-0.67;63.47;99938.19;5043852;28;20452;-69
2022/01/22 03:05:10;;;;;;;23.73;13.90;;;;;;;-0.69;63.11;99934.81;5043582;28;20053;-69
2022/01/22 03:07:39;;;;;;;22.63;12.57;;;;;;;-0.73;63.68;99942.75;5042327;28;20623;-69
2022/01/22 03:10:08;;;;;;;33.22;15.10;;;;;;;-0.73;63.25;99937.56;5043537;28;20045;-69
2022/01/22 03:13:09;;;;;;;16.83;11.30;;;;;;;-0.78;63.61;99935.94;5043355;28;20041;-69
2022/01/22 03:15:52;;;;;;;30.25;13.68;;;;;;;-0.76;63.31;99941.09;5047084;28;20179;-71
2022/01/22 03:18:23;;;;;;;16.17;9.13;;;;;;;-0.77;63.43;99942.84;5046980;28;20075;-70
2022/01/22 03:21:07;;;;;;;21.67;13.15;;;;;;;-0.73;63.13;99938.41;5046218;28;20086;-67
2022/01/22 03:29:09;;;;;;;19.70;9.85;;;;;;;-0.74;63.29;99941.03;5044686;28;20056;-69
2022/01/22 03:31:37;;;;;;;18.30;9.55;;;;;;;-0.77;63.35;99937.66;5048783;28;20140;-67
2022/01/22 03:34:04;;;;;;;19.75;10.23;;;;;;;-0.77;63.43;99942.00;5051226;28;20053;-68
2022/01/22 03:36:33;;;;;;;15.68;9.45;;;;;;;-0.78;63.11;99945.47;5057974;28;20087;-66
2022/01/22 03:39:02;;;;;;;20.67;8.32;;;;;;;-0.78;63.34;99940.28;5057884;28;20045;-67
2022/01/22 03:41:29;;;;;;;20.95;11.18;;;;;;;-0.78;63.11;99945.47;5058298;28;20332;-66
2022/01/22 03:43:56;;;;;;;12.25;7.88;;;;;;;-0.79;63.23;99948.97;5056419;28;20041;-71
2022/01/22 03:46:24;;;;;;;17.80;10.25;;;;;;;-0.81;63.40;99942.97;5055546;28;20223;-69
2022/01/22 03:48:51;;;;;;;19.67;12.73;;;;;;;-0.90;63.44;99954.50;5056798;28;20079;-72
2022/01/22 03:51:18;;;;;;;16.25;8.45;;;;;;;-0.85;63.63;99952.59;5055624;28;20128;-69
2022/01/22 03:53:46;;;;;;;15.35;9.65;;;;;;;-0.89;63.27;99953.59;5059801;28;20129;-68
2022/01/22 03:56:13;;;;;;;19.23;13.18;;;;;;;-0.93;63.73;99964.09;5059433;28;20056;-68
2022/01/22 03:58:41;;;;;;;14.45;9.75;;;;;;;-0.91;63.34;99960.56;5054298;28;20128;-67
2022/01/22 04:01:36;;;;;;;17.67;11.27;;;;;;;-0.95;63.44;99961.56;5049522;28;20547;-69
2022/01/22 04:04:07;;;;;;;17.58;11.20;;;;;;;-0.95;63.20;99953.78;5047577;28;20198;-69
2022/01/22 04:07:14;;;;;;;16.23;9.88;;;;;;;-0.97;63.45;99961.59;5047689;28;20057;-72
2022/01/22 04:09:43;;;;;;;17.77;9.05;;;;;;;-0.91;62.98;99954.53;5046676;28;20118;-65
2022/01/22 04:12:12;;;;;;;17.08;9.48;;;;;;;-0.96;63.55;99957.25;5047318;28;20126;-69
2022/01/22 04:14:46;;;;;;;18.10;9.85;;;;;;;-0.97;63.25;99963.34;5049723;28;20373;-68
2022/01/22 04:17:24;;;;;;;17.00;10.00;;;;;;;-1.01;63.52;99957.41;5046467;28;20057;-67
2022/01/22 04:25:25;;;;;;;15.82;8.73;;;;;;;-1.00;63.06;99973.78;5044697;28;20279;-71
2022/01/22 04:27:53;;;;;;;13.52;7.18;;;;;;;-0.98;63.04;99984.97;5042954;28;20056;-72
2022/01/22 04:30:21;;;;;;;16.67;9.70;;;;;;;-0.99;63.13;99978.06;5045133;28;20045;-69
2022/01/22 04:32:48;;;;;;;13.70;8.30;;;;;;;-0.99;62.86;99997.09;5044642;28;20613;-77
2022/01/22 04:35:17;;;;;;;9.77;6.57;;;;;;;-0.97;62.96;99977.16;5045009;28;20053;-70
2022/01/22 04:37:44;;;;;;;14.80;7.75;;;;;;;-0.87;62.76;99979.47;5044063;28;20084;-69
2022/01/22 04:40:11;;;;;;;11.98;6.70;;;;;;;-0.80;62.63;99991.34;5044312;28;20049;-69
2022/01/22 04:42:40;;;;;;;12.25;7.95;;;;;;;-0.80;62.36;99996.53;5045315;28;20116;-67
2022/01/22 04:45:15;;;;;;;11.88;7.05;;;;;;;-0.86;62.70;99994.13;5044759;28;20450;-72
2022/01/22 04:47:53;;;;;;;11.90;6.35;;;;;;;-0.79;62.27;99986.13;5044678;28;20045;-71
2022/01/22 04:55:55;;;;;;;13.25;6.00;;;;;;;-0.83;62.28;100007.00;4963394;28;20112;-67
2022/01/22 04:58:22;;;;;;;13.05;7.50;;;;;;;-0.90;62.21;100001.16;4960349;28;20046;-67
2022/01/22 05:00:49;;;;;;;12.82;7.65;;;;;;;-0.89;62.29;100004.59;4962397;28;20047;-67
2022/01/22 05:03:17;;;;;;;11.05;5.65;;;;;;;-0.84;62.32;99997.53;4962195;28;20050;-68
2022/01/22 05:05:46;;;;;;;12.32;6.63;;;;;;;-0.85;62.10;100011.38;4962010;28;20072;-70
2022/01/22 05:08:13;;;;;;;10.10;6.35;;;;;;;-0.84;61.76;100010.50;4961617;28;20065;-68
2022/01/22 05:10:40;;;;;;;11.30;7.38;;;;;;;-0.82;61.62;100006.13;4962123;28;20046;-67
2022/01/22 05:13:06;;;;;;;12.43;7.78;;;;;;;-0.88;61.84;100007.16;4961928;28;20042;-68
2022/01/22 05:15:33;;;;;;;10.23;6.25;;;;;;;-0.85;61.85;100012.22;4962544;28;20086;-68
2022/01/22 05:18:04;;;;;;;11.63;5.90;;;;;;;-0.86;61.90;100017.47;4962507;28;20047;-69
2022/01/22 05:20:33;;;;;;;11.23;6.75;;;;;;;-0.83;61.86;100004.41;4962056;28;20102;-72
2022/01/22 05:23:07;;;;;;;12.23;7.47;;;;;;;-0.87;61.54;100006.22;4961863;28;20078;-66
2022/01/22 05:25:39;;;;;;;17.60;9.30;;;;;;;-0.83;61.77;100022.56;4961944;28;20054;-68
2022/01/22 05:28:18;;;;;;;29.52;14.02;;;;;;;-0.87;61.86;100014.00;4959751;28;20322;-67
2022/01/22 05:30:59;;;;;;;24.88;10.75;;;;;;;-0.86;61.34;100025.25;5034121;28;20060;-70
2022/01/22 05:36:54;;;;;;;16.17;9.18;;;;;;;-0.87;61.67;100019.19;5043171;28;20049;-67
2022/01/22 05:39:09;;;;;;;17.92;9.75;;;;;;;-0.83;61.41;100030.31;5042858;28;20527;-68
2022/01/22 05:41:38;;;;;;;24.83;11.98;;;;;;;-0.84;61.40;100031.25;5043016;28;20680;-68
2022/01/22 05:44:06;;;;;;;30.88;15.60;;;;;;;-0.88;61.43;100019.25;5042660;28;20045;-68
2022/01/22 05:46:33;;;;;;;14.07;8.68;;;;;;;-0.81;61.15;100023.34;5042857;28;20060;-69
2022/01/22 05:49:00;;;;;;;20.10;11.35;;;;;;;-0.83;61.20;100033.78;5042149;28;20055;-70
2022/01/22 05:51:27;;;;;;;22.90;9.48;;;;;;;-0.82;61.15;100029.44;5043013;28;20051;-68
2022/01/22 05:54:18;;;;;;;15.60;9.02;;;;;;;-0.82;61.13;100030.28;5042203;28;20088;-67
2022/01/22 05:59:37;;;;;;;22.65;10.40;;;;;;;-0.79;60.90;100044.94;5042203;28;20051;-67
2022/01/22 06:02:05;;;;;;;21.83;11.80;;;;;;;-0.83;61.10;100058.84;5042312;28;20053;-67
2022/01/22 06:04:32;;;;;;;13.32;8.57;;;;;;;-0.79;61.13;100063.09;5041460;28;20059;-69
2022/01/22 06:06:59;;;;;;;18.75;9.27;;;;;;;-0.76;60.84;100062.97;5042497;28;20128;-66
2022/01/22 06:09:26;;;;;;;18.48;9.55;;;;;;;-0.78;61.10;100067.34;5041988;28;20047;-68
2022/01/22 06:11:58;;;;;;;21.30;10.88;;;;;;;-0.73;61.00;100069.81;5041340;28;20049;-67
2022/01/22 06:14:25;;;;;;;26.77;13.27;;;;;;;-0.75;60.80;100075.06;5042229;28;20041;-67
2022/01/22 06:16:52;;;;;;;34.67;13.95;;;;;;;-0.73;61.04;100078.44;5042218;28;20063;-69
2022/01/22 06:19:19;;;;;;;37.97;14.73;;;;;;;-0.71;60.42;100079.25;5042013;28;20055;-67
2022/01/22 06:21:46;;;;;;;40.83;15.93;;;;;;;-0.72;60.35;100085.34;5042536;28;20079;-71
2022/01/22 06:24:13;;;;;;;28.48;14.90;;;;;;;-0.71;60.43;100094.81;5042232;28;20045;-69
2022/01/22 06:26:40;;;;;;;31.20;14.82;;;;;;;-0.73;60.33;100095.75;5043392;28;20641;-70
2022/01/22 06:29:09;;;;;;;25.48;13.50;;;;;;;-0.70;60.49;100104.31;5040863;28;20049;-67
2022/01/22 06:31:36;;;;;;;15.38;10.07;;;;;;;-0.70;60.35;100099.13;5043072;28;20450;-69
2022/01/22 06:34:04;;;;;;;22.27;10.70;;;;;;;-0.71;60.35;100106.94;5043217;28;20053;-68
2022/01/22 06:36:31;;;;;;;21.27;10.88;;;;;;;-0.70;59.92;100112.09;5041678;28;20049;-72
2022/01/22 06:39:10;;;;;;;22.60;9.63;;;;;;;-0.72;60.29;100110.41;5041718;28;20052;-69
2022/01/22 06:41:46;;;;;;;24.48;10.95;;;;;;;-0.71;60.14;100102.59;5041989;28;20053;-68
2022/01/22 06:44:16;;;;;;;17.27;9.65;;;;;;;-0.66;59.66;100110.25;5041346;28;20190;-70
2022/01/22 06:46:44;;;;;;;21.75;11.25;;;;;;;-0.71;59.88;100118.16;5023772;28;20048;-70
2022/01/22 06:49:11;;;;;;;15.65;8.95;;;;;;;-0.68;60.08;100112.88;5039177;28;20051;-69
2022/01/22 06:51:38;;;;;;;14.18;8.95;;;;;;;-0.67;59.62;100121.50;5045758;28;20673;-69
2022/01/22 06:54:07;;;;;;;22.75;13.95;;;;;;;-0.69;60.05;100124.16;5045168;28;20068;-69
2022/01/22 06:56:34;;;;;;;26.83;14.30;;;;;;;-0.59;59.33;100130.78;5046021;28;20045;-71
2022/01/22 06:59:02;;;;;;;22.98;11.13;;;;;;;-0.49;59.40;100143.47;5043816;28;20045;-68
2022/01/22 07:01:31;;;;;;;27.52;13.10;;;;;;;-0.39;58.99;100144.94;5045422;28;20079;-74
2022/01/22 07:03:58;;;;;;;19.95;10.82;;;;;;;-0.23;58.74;100153.97;5039964;28;20156;-73
2022/01/22 07:06:25;;;;;;;24.48;10.63;;;;;;;-0.10;58.41;100157.03;5045261;28;20457;-70
2022/01/22 07:08:52;;;;;;;18.30;11.43;;;;;;;-0.05;58.40;100151.72;5045510;28;20561;-69
2022/01/22 07:11:19;;;;;;;18.73;9.25;;;;;;;0.08;58.04;100155.63;5045515;28;20121;-68
2022/01/22 07:13:47;;;;;;;17.75;10.70;;;;;;;0.15;57.69;100170.13;5034392;28;20045;-71
2022/01/22 07:16:14;;;;;;;15.18;9.00;;;;;;;0.18;57.55;100167.44;5025510;28;20652;-70
2022/01/22 07:18:44;;;;;;;26.27;9.85;;;;;;;0.27;57.40;100170.63;5026146;28;20056;-71
2022/01/22 07:21:16;;;;;;;16.48;9.60;;;;;;;0.30;57.23;100160.16;5025514;28;20056;-74
2022/01/22 07:24:22;;;;;;;17.02;10.13;;;;;;;0.38;57.37;100172.00;5026239;28;20061;-72
2022/01/22 07:26:42;;;;;;;17.98;8.88;;;;;;;0.45;57.02;100170.06;5040104;28;20052;-70
2022/01/22 07:29:11;;;;;;;16.67;9.75;;;;;;;0.52;57.00;100174.16;5042357;28;20055;-70
2022/01/22 07:31:39;;;;;;;19.05;11.07;;;;;;;0.54;56.59;100180.16;5048970;28;20044;-68
2022/01/22 07:34:07;;;;;;;18.45;9.98;;;;;;;0.64;56.40;100185.91;5043781;28;20106;-68
2022/01/22 07:36:35;;;;;;;21.38;10.30;;;;;;;0.65;56.71;100189.34;5035346;28;20041;-69
2022/01/22 07:39:02;;;;;;;19.92;9.77;;;;;;;0.78;56.55;100179.41;5033401;28;20041;-67
2022/01/22 07:41:29;;;;;;;13.75;8.43;;;;;;;0.79;56.22;100183.69;5027969;28;20041;-69
2022/01/22 07:43:56;;;;;;;16.63;9.40;;;;;;;0.81;56.05;100187.97;5023431;28;20048;-69
2022/01/22 07:46:23;;;;;;;15.07;8.02;;;;;;;0.84;55.78;100185.25;5026396;28;20052;-64
2022/01/22 07:48:50;;;;;;;17.23;8.48;;;;;;;0.90;55.57;100189.38;5030668;28;20041;-70
2022/01/22 07:51:18;;;;;;;13.35;8.38;;;;;;;0.97;55.62;100177.03;5042654;28;20053;-72
2022/01/22 07:53:46;;;;;;;19.13;9.55;;;;;;;1.01;55.45;100194.22;5035578;28;20124;-68
2022/01/22 07:56:13;;;;;;;19.85;10.30;;;;;;;0.99;55.35;100196.91;5040300;28;20080;-71
2022/01/22 07:58:40;;;;;;;13.57;8.32;;;;;;;1.02;55.17;100190.72;5031186;28;20050;-67
2022/01/22 08:01:07;;;;;;;14.43;8.95;;;;;;;1.06;55.26;100194.91;5030704;28;20404;-68
2022/01/22 08:03:34;;;;;;;17.95;9.20;;;;;;;1.09;55.00;100206.06;5031508;28;20054;-66
2022/01/22 08:06:01;;;;;;;18.08;10.32;;;;;;;1.16;55.22;100198.06;5041256;28;20047;-69
2022/01/22 08:08:30;;;;;;;15.80;10.48;;;;;;;1.21;54.97;100202.22;5048998;28;20120;-66
2022/01/22 08:10:57;;;;;;;19.25;11.32;;;;;;;1.20;54.63;100208.28;5050925;28;20464;-68
2022/01/22 08:13:24;;;;;;;16.02;10.18;;;;;;;1.25;54.67;100219.41;5028873;28;20606;-69
2022/01/22 08:15:51;;;;;;;19.95;10.98;;;;;;;1.26;54.80;100230.66;5048346;28;20042;-68
2022/01/22 08:18:18;;;;;;;20.10;11.25;;;;;;;1.28;54.48;100221.06;5052201;28;20133;-67
2022/01/22 08:20:45;;;;;;;16.40;9.20;;;;;;;1.40;54.30;100219.75;5055165;28;20136;-67
2022/01/22 08:23:12;;;;;;;17.02;7.50;;;;;;;1.47;53.89;100229.06;5057749;28;20049;-68
2022/01/22 08:25:44;;;;;;;22.85;11.13;;;;;;;1.49;54.23;100232.44;5060109;28;20124;-70
2022/01/22 08:30:56;;;;;;;11.85;9.05;;;;;;;1.62;53.55;100251.09;5042396;28;20047;-67
2022/01/22 08:35:52;;;;;;;13.73;8.32;;;;;;;1.56;53.74;100240.91;5041120;28;20122;-71
2022/01/22 08:36:20;;;;;;;14.93;8.82;;;;;;;1.60;53.37;100264.16;5041734;28;20056;-68
2022/01/22 08:38:47;;;;;;;15.63;8.32;;;;;;;1.61;53.42;100262.41;5042290;28;20050;-68
2022/01/22 08:41:15;;;;;;;14.30;5.68;;;;;;;1.66;53.54;100250.94;5045836;28;20391;-66
2022/01/22 08:43:42;;;;;;;13.85;7.40;;;;;;;1.68;53.03;100246.53;5043761;28;20047;-71
2022/01/22 08:46:09;;;;;;;11.60;7.82;;;;;;;1.72;53.12;100252.47;5042873;28;20131;-70
2022/01/22 08:48:37;;;;;;;14.73;8.23;;;;;;;1.77;52.96;100254.91;5042613;28;20059;-68
2022/01/22 08:51:04;;;;;;;19.48;9.13;;;;;;;1.80;53.16;100273.88;5042322;28;20125;-70
2022/01/22 08:53:32;;;;;;;14.57;8.40;;;;;;;1.81;52.78;100264.31;5030390;28;20045;-68
2022/01/22 08:56:00;;;;;;;16.92;9.50;;;;;;;1.81;53.05;100265.16;5038880;28;20040;-68
2022/01/22 08:58:28;;;;;;;19.15;10.48;;;;;;;1.80;53.06;100278.22;5040074;28;20060;-70
2022/01/22 09:00:55;;;;;;;20.23;9.25;;;;;;;1.80;52.92;100271.28;5005092;28;20254;-66
2022/01/22 09:03:23;;;;;;;17.30;8.52;;;;;;;1.85;52.92;100284.13;5041239;28;20065;-67
2022/01/22 09:05:51;;;;;;;16.73;7.53;;;;;;;1.95;52.60;100287.25;5033798;28;20061;-66
2022/01/22 09:08:18;;;;;;;16.52;9.48;;;;;;;1.92;52.61;100289.03;5028087;28;21041;-70
2022/01/22 09:10:48;;;;;;;21.80;11.85;;;;;;;1.92;52.72;100301.22;5029850;28;20083;-69
2022/01/22 09:13:15;;;;;;;19.48;9.88;;;;;;;1.95;52.47;100311.53;5034764;28;20051;-71
2022/01/22 09:15:44;;;;;;;17.55;10.63;;;;;;;1.94;52.38;100330.66;5029429;28;20547;-72
2022/01/22 09:18:12;;;;;;;15.32;7.53;;;;;;;1.97;52.39;100335.78;5033746;28;20489;-71
2022/01/22 09:21:02;;;;;;;20.80;11.77;;;;;;;1.97;52.66;100314.94;5016953;28;20111;-70
2022/01/22 09:23:30;;;;;;;17.05;8.68;;;;;;;1.99;52.56;100331.34;5028853;28;20079;-72
2022/01/22 09:25:58;;;;;;;14.05;7.90;;;;;;;1.96;52.41;100341.88;5029347;28;20617;-71
2022/01/22 09:28:25;;;;;;;17.02;10.55;;;;;;;1.95;52.30;100348.00;5028492;28;20142;-70
2022/01/22 09:30:54;;;;;;;21.15;9.68;;;;;;;1.99;52.79;100357.41;5030868;28;20132;-69
2022/01/22 09:33:23;;;;;;;16.02;8.20;;;;;;;2.01;52.11;100350.38;5034324;28;20128;-74
2022/01/22 09:35:50;;;;;;;18.38;9.82;;;;;;;2.02;52.57;100356.47;5032779;28;20045;-72
2022/01/22 09:38:17;;;;;;;22.55;10.05;;;;;;;1.99;52.43;100356.56;5032358;28;20042;-71
2022/01/22 09:40:44;;;;;;;16.42;10.98;;;;;;;2.01;52.51;100363.41;5038199;28;20048;-72
2022/01/22 09:43:15;;;;;;;27.38;11.40;;;;;;;2.04;52.53;100365.06;5035182;28;20136;-71
2022/01/22 09:45:45;;;;;;;19.73;11.68;;;;;;;2.06;52.76;100369.31;5030784;28;20642;-75
2022/01/22 09:48:14;;;;;;;26.13;10.73;;;;;;;2.15;52.64;100375.13;5032024;28;20167;-74
2022/01/22 09:50:44;;;;;;;21.35;11.77;;;;;;;2.15;52.68;100372.50;5032644;28;20064;-72
2022/01/22 09:53:11;;;;;;;18.58;10.43;;;;;;;2.20;52.42;100387.06;5040064;28;20132;-75
2022/01/22 09:55:42;;;;;;;16.83;8.50;;;;;;;2.26;52.49;100386.00;5020227;28;20133;-71
2022/01/22 09:58:09;;;;;;;21.60;11.60;;;;;;;2.29;52.36;100385.91;5042606;28;20927;-71
2022/01/22 10:00:38;;;;;;;27.23;12.20;;;;;;;2.34;52.61;100397.00;5045891;28;20060;-70
2022/01/22 10:03:19;;;;;;;19.85;10.45;;;;;;;2.35;52.53;100396.09;5034968;28;20060;-69
2022/01/22 10:05:46;;;;;;;16.48;8.45;;;;;;;2.36;52.85;100397.81;5034752;28;20786;-71
2022/01/22 10:08:27;;;;;;;22.40;12.15;;;;;;;2.41;53.26;100395.00;5035126;28;20076;-70
2022/01/22 10:10:55;;;;;;;22.80;10.82;;;;;;;2.45;53.20;100392.25;5034390;28;20048;-71
2022/01/22 10:13:40;;;;;;;12.90;8.30;;;;;;;2.47;53.12;100387.81;5031586;28;20045;-72
2022/01/22 10:16:13;;;;;;;19.88;12.35;;;;;;;2.52;53.10;100394.63;5033527;28;20057;-69
2022/01/22 10:18:44;;;;;;;19.48;10.38;;;;;;;2.48;53.21;100399.97;5032344;28;20044;-71
2022/01/22 10:21:15;;;;;;;19.02;9.52;;;;;;;2.54;53.07;100408.44;5037434;28;20640;-74
2022/01/22 10:23:42;;;;;;;23.80;12.40;;;;;;;2.59;52.82;100403.91;5033604;28;20040;-75
2022/01/22 10:26:13;;;;;;;19.67;11.40;;;;;;;2.73;52.75;100404.25;5031471;28;20091;-70
2022/01/22 10:28:45;;;;;;;13.35;8.45;;;;;;;2.82;52.57;100411.72;5028937;28;20053;-76
2022/01/22 10:31:20;;;;;;;17.80;11.20;;;;;;;2.87;52.24;100420.22;5039005;28;20133;-72
2022/01/22 10:34:07;;;;;;;16.80;10.63;;;;;;;2.94;52.16;100414.78;5035785;28;20133;-74
2022/01/22 10:36:34;;;;;;;17.98;11.40;;;;;;;2.94;52.09;100420.00;5033809;28;20041;-68
2022/01/22 10:39:02;;;;;;;15.35;10.13;;;;;;;2.86;52.37;100421.16;5033346;28;20041;-75
2022/01/22 10:41:37;;;;;;;20.95;11.93;;;;;;;2.87;52.80;100430.66;5032079;28;20168;-75
2022/01/22 10:44:12;;;;;;;21.77;12.15;;;;;;;2.80;53.11;100429.19;5032012;28;20658;-77
2022/01/22 10:46:46;;;;;;;19.98;11.60;;;;;;;2.85;52.73;100416.84;5039816;28;20091;-68
2022/01/22 10:49:16;;;;;;;25.38;14.13;;;;;;;2.80;53.21;100439.63;5031070;28;20048;-72
2022/01/22 10:51:49;;;;;;;21.42;14.48;;;;;;;2.78;53.17;100441.44;5035491;28;20600;-71
2022/01/22 10:54:18;;;;;;;30.08;15.48;;;;;;;2.77;53.42;100442.34;5046812;28;20052;-72
2022/01/22 10:56:46;;;;;;;16.83;11.90;;;;;;;2.82;53.12;100439.56;5047557;28;20143;-72
2022/01/22 10:59:14;;;;;;;20.98;12.85;;;;;;;2.83;53.23;100443.91;5035561;28;20357;-73
2022/01/22 11:01:52;;;;;;;22.73;13.00;;;;;;;2.97;53.10;100445.97;5044595;28;20098;-75
2022/01/22 11:04:23;;;;;;;19.33;12.63;;;;;;;2.99;52.72;100447.63;5044671;28;20045;-73
2022/01/22 11:06:55;;;;;;;25.27;13.02;;;;;;;3.03;52.61;100445.75;5027327;28;20041;-73
2022/01/22 11:09:24;;;;;;;18.88;12.50;;;;;;;2.95;52.59;100468.66;5056006;28;20044;-71
2022/01/22 11:11:52;;;;;;;19.50;10.07;;;;;;;3.00;52.78;100472.78;5063787;28;20049;-73
2022/01/22 11:14:20;;;;;;;17.67;11.30;;;;;;;2.99;52.94;100489.38;5063214;28;20289;-69
2022/01/22 11:16:49;;;;;;;15.68;10.18;;;;;;;3.02;53.05;100484.03;5065156;28;20076;-74
2022/01/22 11:19:18;;;;;;;13.32;11.25;;;;;;;2.98;52.85;100489.44;5070030;28;20171;-73
2022/01/22 11:21:49;;;;;;;16.15;9.00;;;;;;;3.08;52.98;100495.13;5064727;28;20069;-75
2022/01/22 11:24:18;;;;;;;18.08;7.80;;;;;;;3.13;52.94;100504.50;5062817;28;20045;-70
2022/01/22 11:26:48;;;;;;;15.15;8.45;;;;;;;3.14;52.81;100502.75;5060478;28;20045;-71
2022/01/22 11:29:17;;;;;;;17.40;8.85;;;;;;;3.09;52.94;100502.91;5060204;28;20140;-75
2022/01/22 11:31:47;;;;;;;15.00;9.10;;;;;;;3.08;53.01;100514.28;5062566;28;20041;-73
2022/01/22 11:34:18;;;;;;;13.70;8.88;;;;;;;3.00;52.53;100511.09;5064086;28;20071;-75
2022/01/22 11:37:06;;;;;;;13.65;8.55;;;;;;;2.88;53.05;100520.22;5062442;28;20025;-72
2022/01/22 11:39:35;;;;;;;15.80;8.07;;;;;;;2.97;52.96;100524.25;5062091;28;20123;-71
2022/01/22 11:42:03;;;;;;;11.50;7.15;;;;;;;3.10;52.34;100511.59;5055115;28;20623;-74
2022/01/22 11:44:36;;;;;;;13.80;7.90;;;;;;;3.29;52.15;100522.19;5055195;28;20041;-73
2022/01/22 11:47:13;;;;;;;12.88;8.70;;;;;;;3.46;51.59;100517.19;5053755;28;20049;-72
2022/01/22 11:49:42;;;;;;;13.20;8.63;;;;;;;3.54;51.41;100511.66;5052538;28;20052;-74
2022/01/22 11:52:26;;;;;;;20.15;12.98;;;;;;;3.56;51.69;100515.06;5055915;28;20072;-75
2022/01/22 11:54:55;;;;;;;13.43;9.07;;;;;;;3.53;51.92;100523.00;5053012;28;20103;-71
2022/01/22 11:57:23;;;;;;;18.38;13.40;;;;;;;3.49;52.11;100524.88;5054671;28;20060;-74
2022/01/22 12:00:21;;;;;;;17.77;11.65;;;;;;;3.45;52.55;100533.75;5053478;28;20124;-75
2022/01/22 12:03:20;;;;;;;20.48;14.43;;;;;;;3.37;52.97;100536.66;5055261;28;20056;-74
2022/01/22 12:06:07;;;;;;;13.15;10.05;;;;;;;3.38;52.94;100538.34;5053722;28;20124;-77
2022/01/22 12:09:12;;;;;;;18.38;11.40;;;;;;;3.47;53.05;100546.75;5055393;28;20113;-73
2022/01/22 12:14:55;;;;;;;15.88;11.20;;;;;;;3.22;53.24;100545.94;4972627;28;20156;-73
2022/01/22 12:17:58;;;;;;;25.13;12.40;;;;;;;3.40;52.89;100543.53;4917115;29;20067;-76
2022/01/22 12:23:52;;;;;;;18.98;12.20;;;;;;;3.66;52.64;100549.53;4914780;29;20063;-73
2022/01/22 12:26:44;;;;;;;22.08;12.63;;;;;;;3.75;52.41;100543.94;4902203;29;20055;-73
2022/01/22 12:29:46;;;;;;;28.77;18.33;;;;;;;3.78;52.52;100549.00;4895681;29;20123;-73
2022/01/22 12:32:20;;;;;;;19.98;13.00;;;;;;;3.75;52.50;100560.44;4893330;29;20476;-74
2022/01/22 12:35:05;;;;;;;19.73;14.73;;;;;;;3.69;52.29;100560.72;4849249;29;20088;-76